createdAt,value
2018-01-28T00:00:30.972Z,4.22
2018-01-28T00:01:33.596Z,5.62
2018-01-28T00:02:36.058Z,4.40
2018-01-28T00:03:38.543Z,5.25
2018-01-28T00:04:41.035Z,7.37
2018-01-28T00:05:43.499Z,5.12
2018-01-28T00:06:45.958Z,5.07
2018-01-28T00:07:48.432Z,4.50
2018-01-28T00:08:50.887Z,5.45
2018-01-28T00:09:53.338Z,4.97
2018-01-28T00:10:55.802Z,5.55
2018-01-28T00:11:58.263Z,6.03
2018-01-28T00:13:00.747Z,3.85
2018-01-28T00:14:03.198Z,7.18
2018-01-28T00:15:05.669Z,7.45
2018-01-28T00:16:08.148Z,4.25
2018-01-28T00:17:10.606Z,4.93
2018-01-28T00:18:13.066Z,5.80
2018-01-28T00:19:15.559Z,5.22
2018-01-28T00:20:18.035Z,5.22
2018-01-28T00:21:20.517Z,16.02
2018-01-28T00:22:22.994Z,9.23
2018-01-28T00:23:25.473Z,7.32
2018-01-28T00:24:27.994Z,11.02
2018-01-28T00:25:30.474Z,6.90
2018-01-28T00:26:32.960Z,6.40
2018-01-28T00:27:35.433Z,6.95
2018-01-28T00:28:37.887Z,9.18
2018-01-28T00:29:40.343Z,8.45
2018-01-28T00:30:42.816Z,7.53
2018-01-28T00:31:45.292Z,7.12
2018-01-28T00:32:47.754Z,9.02
2018-01-28T00:33:50.224Z,8.77
2018-01-28T00:34:52.682Z,7.97
2018-01-28T00:35:55.139Z,7.78
2018-01-28T00:36:57.612Z,8.57
2018-01-28T00:38:00.066Z,9.80
2018-01-28T00:39:02.542Z,8.15
2018-01-28T00:40:05.005Z,9.60
2018-01-28T00:41:07.466Z,9.35
2018-01-28T00:42:09.947Z,8.52
2018-01-28T00:43:12.424Z,11.88
2018-01-28T00:44:14.879Z,9.35
2018-01-28T00:45:17.348Z,8.52
2018-01-28T00:46:19.807Z,13.30
2018-01-28T00:47:22.277Z,9.43
2018-01-28T00:48:24.735Z,8.63
2018-01-28T00:49:27.194Z,8.95
2018-01-28T00:50:29.694Z,9.63
2018-01-28T00:51:32.169Z,13.60
2018-01-28T00:52:34.665Z,11.68
2018-01-28T00:53:37.150Z,12.18
2018-01-28T00:54:39.628Z,8.55
2018-01-28T00:55:42.083Z,9.55
2018-01-28T00:56:44.564Z,11.02
2018-01-28T00:57:47.033Z,8.63
2018-01-28T00:58:49.494Z,9.93
2018-01-28T00:59:51.971Z,10.10
2018-01-28T01:00:54.445Z,8.75
2018-01-28T01:01:56.981Z,11.60
2018-01-28T01:02:59.468Z,12.57
2018-01-28T01:04:01.923Z,6.87
2018-01-28T01:05:04.393Z,11.77
2018-01-28T01:06:06.933Z,12.27
2018-01-28T01:07:09.367Z,10.73
2018-01-28T01:08:11.843Z,13.00
2018-01-28T01:09:14.313Z,8.43
2018-01-28T01:10:16.778Z,12.55
2018-01-28T01:11:19.252Z,13.68
2018-01-28T01:12:21.711Z,13.57
2018-01-28T01:13:24.241Z,18.05
2018-01-28T01:14:26.723Z,13.88
2018-01-28T01:15:29.210Z,13.25
2018-01-28T01:16:31.675Z,17.10
2018-01-28T01:17:34.139Z,16.40
2018-01-28T01:18:36.617Z,15.07
2018-01-28T01:19:39.078Z,17.83
2018-01-28T01:20:41.581Z,16.80
2018-01-28T01:21:44.015Z,14.98
2018-01-28T01:22:46.493Z,18.55
2018-01-28T01:23:48.986Z,15.35
2018-01-28T01:24:51.460Z,20.52
2018-01-28T01:25:53.938Z,21.30
2018-01-28T01:26:56.402Z,18.20
2018-01-28T01:27:58.883Z,20.62
2018-01-28T01:29:01.383Z,18.05
2018-01-28T01:30:03.836Z,16.05
2018-01-28T01:31:06.325Z,18.48
2018-01-28T01:32:08.796Z,18.50
2018-01-28T01:33:11.269Z,12.85
2018-01-28T01:34:13.753Z,19.25
2018-01-28T01:35:16.223Z,23.40
2018-01-28T01:36:18.686Z,17.95
2018-01-28T01:37:21.188Z,28.08
2018-01-28T01:38:23.662Z,19.42
2018-01-28T01:39:26.130Z,21.23
2018-01-28T01:40:28.594Z,21.30
2018-01-28T01:41:31.069Z,22.40
2018-01-28T01:42:33.558Z,19.85
2018-01-28T01:43:36.058Z,23.40
2018-01-28T01:44:38.524Z,18.73
2018-01-28T01:45:40.987Z,22.25
2018-01-28T01:46:43.456Z,23.75
2018-01-28T01:47:45.932Z,24.95
2018-01-28T01:48:48.407Z,22.48
2018-01-28T01:49:50.981Z,19.80
2018-01-28T01:50:53.461Z,24.98
2018-01-28T01:51:55.955Z,21.58
2018-01-28T01:52:58.429Z,23.30
2018-01-28T01:54:00.923Z,28.80
2018-01-28T01:55:03.418Z,22.55
2018-01-28T01:56:05.883Z,22.83
2018-01-28T01:57:08.358Z,22.67
2018-01-28T01:58:10.823Z,18.15
2018-01-28T01:59:13.301Z,20.05
2018-01-28T02:00:15.766Z,21.35
2018-01-28T02:01:18.254Z,20.92
2018-01-28T02:02:20.718Z,22.83
2018-01-28T02:03:23.186Z,17.40
2018-01-28T02:04:25.650Z,24.98
2018-01-28T02:05:28.134Z,18.62
2018-01-28T02:06:30.599Z,21.08
2018-01-28T02:07:33.081Z,22.25
2018-01-28T02:08:35.547Z,25.05
2018-01-28T02:09:38.025Z,20.92
2018-01-28T02:10:40.490Z,22.37
2018-01-28T02:11:42.959Z,14.63
2018-01-28T02:12:45.436Z,18.30
2018-01-28T02:13:47.898Z,15.77
2018-01-28T02:14:50.359Z,14.73
2018-01-28T02:15:52.860Z,13.88
2018-01-28T02:16:55.328Z,18.20
2018-01-28T02:17:57.804Z,18.87
2018-01-28T02:19:00.281Z,25.15
2018-01-28T02:20:02.751Z,16.80
2018-01-28T02:21:05.228Z,14.55
2018-01-28T02:22:07.706Z,14.87
2018-01-28T02:23:10.173Z,17.70
2018-01-28T02:24:12.721Z,20.52
2018-01-28T02:25:15.197Z,19.87
2018-01-28T02:26:17.668Z,15.15
2018-01-28T02:27:20.123Z,14.48
2018-01-28T02:28:22.590Z,17.20
2018-01-28T02:29:25.055Z,17.62
2018-01-28T02:30:27.529Z,13.10
2018-01-28T02:31:29.992Z,15.15
2018-01-28T02:32:32.446Z,17.50
2018-01-28T02:33:34.920Z,15.35
2018-01-28T02:34:37.396Z,20.27
2018-01-28T02:35:39.873Z,16.73
2018-01-28T02:36:42.335Z,18.08
2018-01-28T02:37:44.790Z,18.67
2018-01-28T02:38:47.254Z,20.67
2018-01-28T02:39:49.745Z,15.38
2018-01-28T02:40:52.216Z,16.83
2018-01-28T02:41:54.702Z,20.90
2018-01-28T02:42:57.164Z,19.55
2018-01-28T02:43:59.630Z,13.32
2018-01-28T02:45:02.091Z,19.58
2018-01-28T02:46:04.557Z,18.00
2018-01-28T02:47:07.035Z,20.88
2018-01-28T02:48:09.504Z,18.30
2018-01-28T02:49:11.962Z,14.27
2018-01-28T02:50:14.475Z,12.43
2018-01-28T02:51:16.971Z,17.05
2018-01-28T02:52:19.434Z,14.05
2018-01-28T02:53:21.950Z,13.90
2018-01-28T02:54:24.485Z,10.77
2018-01-28T02:55:26.958Z,15.35
2018-01-28T02:56:29.441Z,12.70
2018-01-28T02:57:31.902Z,13.20
2018-01-28T02:58:34.361Z,9.73
2018-01-28T02:59:36.826Z,13.80
2018-01-28T03:00:39.296Z,9.77
2018-01-28T03:01:41.777Z,9.55
2018-01-28T03:02:44.256Z,21.75
2018-01-28T03:03:46.712Z,13.38
2018-01-28T03:04:49.175Z,12.98
2018-01-28T03:05:51.651Z,13.88
2018-01-28T03:06:54.121Z,9.77
2018-01-28T03:07:56.583Z,11.65
2018-01-28T03:08:59.056Z,14.48
2018-01-28T03:10:01.529Z,8.70
2018-01-28T03:11:04.006Z,10.93
2018-01-28T03:12:06.485Z,10.95
2018-01-28T03:13:08.938Z,12.68
2018-01-28T03:14:11.420Z,10.95
2018-01-28T03:15:13.882Z,11.48
2018-01-28T03:16:16.342Z,11.77
2018-01-28T03:17:18.811Z,11.15
2018-01-28T03:18:21.276Z,12.00
2018-01-28T03:19:23.734Z,13.25
2018-01-28T03:20:26.201Z,10.85
2018-01-28T03:21:28.657Z,8.98
2018-01-28T03:22:31.137Z,8.40
2018-01-28T03:23:33.590Z,9.40
2018-01-28T03:24:36.055Z,11.18
2018-01-28T03:25:38.538Z,8.80
2018-01-28T03:26:41.009Z,10.40
2018-01-28T03:27:43.474Z,11.07
2018-01-28T03:28:45.966Z,15.60
2018-01-28T03:29:48.419Z,8.93
2018-01-28T03:30:50.871Z,9.52
2018-01-28T03:31:53.349Z,7.90
2018-01-28T03:32:55.807Z,10.60
2018-01-28T03:33:58.297Z,8.88
2018-01-28T03:35:00.751Z,8.00
2018-01-28T03:36:03.226Z,7.40
2018-01-28T03:37:05.701Z,7.70
2018-01-28T03:38:08.169Z,7.25
2018-01-28T03:39:10.647Z,8.50
2018-01-28T03:40:13.098Z,9.23
2018-01-28T03:41:15.616Z,6.78
2018-01-28T03:42:18.074Z,7.93
2018-01-28T03:43:20.548Z,6.87
2018-01-28T03:44:23.028Z,10.73
2018-01-28T03:45:25.482Z,6.53
2018-01-28T03:46:27.961Z,5.80
2018-01-28T03:47:30.432Z,8.27
2018-01-28T03:48:32.891Z,6.43
2018-01-28T03:49:35.368Z,9.68
2018-01-28T03:50:37.822Z,9.18
2018-01-28T03:51:40.292Z,6.10
2018-01-28T03:52:42.747Z,10.25
2018-01-28T03:53:45.221Z,7.82
2018-01-28T03:54:47.700Z,10.25
2018-01-28T03:55:50.166Z,7.32
2018-01-28T03:56:52.637Z,8.90
2018-01-28T03:57:55.109Z,11.85
2018-01-28T03:58:57.574Z,10.30
2018-01-28T04:00:00.043Z,7.65
2018-01-28T04:01:02.511Z,9.73
2018-01-28T04:02:04.976Z,7.72
2018-01-28T04:03:07.438Z,10.82
2018-01-28T04:04:09.923Z,9.35
2018-01-28T04:05:12.386Z,8.35
2018-01-28T04:06:14.843Z,9.80
2018-01-28T04:07:17.313Z,7.68
2018-01-28T04:08:19.778Z,12.70
2018-01-28T04:09:22.248Z,7.00
2018-01-28T04:10:24.703Z,6.15
2018-01-28T04:11:27.162Z,6.78
2018-01-28T04:12:29.616Z,7.82
2018-01-28T04:13:32.096Z,6.47
2018-01-28T04:14:34.572Z,6.55
2018-01-28T04:15:37.053Z,10.77
2018-01-28T04:16:39.519Z,10.68
2018-01-28T04:17:41.997Z,6.40
2018-01-28T04:18:44.455Z,9.15
2018-01-28T04:19:46.932Z,10.10
2018-01-28T04:20:49.401Z,7.70
2018-01-28T04:21:52.876Z,7.40
2018-01-28T04:22:55.345Z,8.98
2018-01-28T04:23:57.794Z,8.73
2018-01-28T04:25:00.264Z,7.85
2018-01-28T04:26:02.741Z,8.68
2018-01-28T04:27:05.203Z,10.98
2018-01-28T04:28:07.673Z,8.07
2018-01-28T04:29:10.131Z,9.60
2018-01-28T04:30:12.605Z,10.00
2018-01-28T04:31:15.081Z,13.57
2018-01-28T04:32:17.598Z,8.38
2018-01-28T04:33:20.054Z,7.45
2018-01-28T04:34:22.514Z,12.07
2018-01-28T04:35:24.966Z,3.97
2018-01-28T04:36:27.437Z,5.22
2018-01-28T04:37:29.913Z,5.03
2018-01-28T04:38:32.384Z,3.78
2018-01-28T04:39:34.856Z,4.30
2018-01-28T04:40:37.310Z,3.25
2018-01-28T04:41:39.770Z,3.40
2018-01-28T04:42:42.239Z,3.03
2018-01-28T04:43:44.698Z,3.08
2018-01-28T04:44:47.160Z,3.97
2018-01-28T04:45:49.633Z,2.15
2018-01-28T04:46:52.091Z,5.20
2018-01-28T04:47:54.556Z,3.55
2018-01-28T04:48:57.034Z,2.80
2018-01-28T04:49:59.502Z,2.15
2018-01-28T04:51:02.006Z,2.20
2018-01-28T04:52:04.483Z,2.28
2018-01-28T04:53:06.968Z,2.65
2018-01-28T04:54:09.457Z,2.35
2018-01-28T04:55:11.929Z,2.42
2018-01-28T04:56:14.387Z,3.25
2018-01-28T04:57:16.844Z,2.33
2018-01-28T04:58:19.317Z,2.30
2018-01-28T04:59:21.812Z,7.35
2018-01-28T05:00:24.286Z,2.92
2018-01-28T05:01:39.629Z,2.80
2018-01-28T05:02:42.101Z,3.40
2018-01-28T05:03:44.572Z,3.50
2018-01-28T05:04:47.059Z,3.45
2018-01-28T05:05:49.519Z,4.32
2018-01-28T05:06:51.989Z,3.87
2018-01-28T05:07:54.447Z,4.57
2018-01-28T05:08:56.910Z,3.83
2018-01-28T05:09:59.370Z,3.75
2018-01-28T05:11:01.826Z,4.40
2018-01-28T05:12:04.283Z,3.78
2018-01-28T05:13:06.746Z,4.37
2018-01-28T05:14:09.250Z,4.72
2018-01-28T05:15:11.670Z,4.40
2018-01-28T05:16:14.214Z,5.40
2018-01-28T05:17:16.685Z,4.93
2018-01-28T05:18:19.138Z,6.68
2018-01-28T05:19:21.628Z,4.62
2018-01-28T05:20:24.090Z,5.25
2018-01-28T05:21:26.546Z,5.10
2018-01-28T05:22:29.014Z,4.82
2018-01-28T05:23:31.484Z,4.70
2018-01-28T05:24:33.960Z,5.75
2018-01-28T05:25:36.433Z,5.32
2018-01-28T05:26:38.907Z,6.15
2018-01-28T05:27:41.384Z,5.50
2018-01-28T05:28:43.865Z,9.00
2018-01-28T05:29:46.342Z,4.40
2018-01-28T05:30:48.799Z,5.12
2018-01-28T05:31:51.254Z,5.32
2018-01-28T05:32:53.724Z,5.00
2018-01-28T05:33:56.178Z,5.28
2018-01-28T05:34:58.650Z,6.55
2018-01-28T05:36:01.102Z,5.32
2018-01-28T05:37:03.573Z,8.95
2018-01-28T05:38:06.057Z,5.90
2018-01-28T05:39:08.522Z,5.57
2018-01-28T05:40:10.975Z,5.80
2018-01-28T05:41:13.473Z,5.95
2018-01-28T05:42:15.927Z,6.00
2018-01-28T05:43:18.400Z,5.35
2018-01-28T05:44:20.855Z,5.62
2018-01-28T05:45:23.321Z,5.87
2018-01-28T05:46:25.776Z,5.47
2018-01-28T05:47:28.233Z,5.60
2018-01-28T05:48:30.716Z,6.12
2018-01-28T05:49:33.185Z,7.70
2018-01-28T05:50:35.656Z,6.05
2018-01-28T05:51:38.136Z,6.15
2018-01-28T05:52:40.592Z,6.57
2018-01-28T05:53:43.058Z,4.87
2018-01-28T05:54:45.528Z,4.15
2018-01-28T05:55:48.005Z,4.80
2018-01-28T05:56:50.476Z,5.20
2018-01-28T05:57:52.938Z,5.20
2018-01-28T05:58:55.406Z,5.25
2018-01-28T05:59:57.903Z,4.57
2018-01-28T06:01:00.362Z,3.87
2018-01-28T06:02:02.832Z,4.35
2018-01-28T06:03:05.290Z,3.80
2018-01-28T06:04:07.742Z,2.95
2018-01-28T06:05:10.206Z,3.00
2018-01-28T06:06:12.688Z,3.75
2018-01-28T06:07:15.160Z,3.35
2018-01-28T06:08:17.642Z,3.60
2018-01-28T06:09:20.124Z,3.62
2018-01-28T06:10:22.578Z,2.90
2018-01-28T06:11:25.038Z,2.85
2018-01-28T06:12:27.504Z,6.75
2018-01-28T06:13:29.979Z,4.40
2018-01-28T06:14:32.435Z,2.87
2018-01-28T06:15:34.909Z,1.92
2018-01-28T06:16:37.367Z,2.65
2018-01-28T06:17:39.830Z,2.95
2018-01-28T06:18:42.304Z,1.67
2018-01-28T06:19:44.766Z,2.45
2018-01-28T06:20:47.241Z,2.45
2018-01-28T06:21:49.694Z,2.00
2018-01-28T06:22:52.173Z,2.12
2018-01-28T06:23:54.674Z,2.40
2018-01-28T06:24:57.165Z,2.10
2018-01-28T06:25:59.640Z,2.33
2018-01-28T06:27:02.111Z,2.00
2018-01-28T06:28:04.608Z,2.03
2018-01-28T06:29:07.068Z,2.45
2018-01-28T06:30:09.531Z,2.78
2018-01-28T06:31:12.001Z,3.10
2018-01-28T06:32:14.454Z,2.75
2018-01-28T06:33:16.923Z,2.80
2018-01-28T06:34:19.457Z,3.15
2018-01-28T06:35:21.918Z,3.78
2018-01-28T06:36:24.370Z,3.42
2018-01-28T06:37:26.928Z,3.42
2018-01-28T06:38:29.386Z,3.00
2018-01-28T06:39:31.867Z,3.72
2018-01-28T06:40:34.349Z,3.37
2018-01-28T06:41:36.826Z,3.70
2018-01-28T06:42:39.287Z,3.22
2018-01-28T06:43:41.739Z,2.05
2018-01-28T06:44:44.194Z,3.10
2018-01-28T06:45:46.668Z,3.08
2018-01-28T06:46:49.140Z,3.20
2018-01-28T06:47:51.599Z,3.83
2018-01-28T06:48:54.068Z,3.17
2018-01-28T06:49:56.549Z,3.33
2018-01-28T06:50:59.010Z,3.75
2018-01-28T06:52:01.498Z,3.80
2018-01-28T06:53:03.974Z,8.80
2018-01-28T06:54:06.444Z,3.95
2018-01-28T06:55:08.903Z,4.68
2018-01-28T06:56:11.423Z,5.00
2018-01-28T06:57:13.878Z,4.18
2018-01-28T06:58:16.730Z,3.70
2018-01-28T06:59:19.186Z,3.97
2018-01-28T07:00:21.657Z,4.20
2018-01-28T07:01:24.129Z,3.80
2018-01-28T07:02:26.585Z,5.22
2018-01-28T07:03:29.057Z,5.75
2018-01-28T07:04:31.530Z,11.02
2018-01-28T07:05:33.991Z,5.70
2018-01-28T07:06:36.463Z,6.12
2018-01-28T07:07:38.961Z,4.37
2018-01-28T07:08:41.442Z,4.28
2018-01-28T07:09:43.914Z,4.12
2018-01-28T07:10:46.392Z,5.55
2018-01-28T07:11:48.850Z,4.57
2018-01-28T07:12:51.308Z,4.32
2018-01-28T07:13:53.767Z,4.97
2018-01-28T07:14:56.275Z,4.75
2018-01-28T07:15:58.753Z,4.87
2018-01-28T07:17:01.216Z,5.78
2018-01-28T07:18:03.748Z,6.20
2018-01-28T07:19:06.202Z,4.93
2018-01-28T07:20:08.669Z,5.00
2018-01-28T07:21:11.127Z,6.45
2018-01-28T07:22:13.588Z,5.50
2018-01-28T07:23:16.043Z,5.30
2018-01-28T07:24:18.518Z,5.90
2018-01-28T07:25:20.992Z,5.22
2018-01-28T07:26:23.469Z,5.55
2018-01-28T07:27:25.931Z,7.70
2018-01-28T07:28:28.422Z,5.35
2018-01-28T07:29:30.896Z,14.90
2018-01-28T07:30:33.378Z,5.65
2018-01-28T07:31:35.855Z,6.47
2018-01-28T07:32:38.311Z,6.12
2018-01-28T07:33:40.771Z,7.47
2018-01-28T07:34:43.227Z,6.72
2018-01-28T07:35:45.697Z,6.35
2018-01-28T07:36:48.164Z,7.87
2018-01-28T07:37:50.632Z,5.80
2018-01-28T07:38:53.087Z,5.35
2018-01-28T07:39:55.620Z,5.80
2018-01-28T07:40:58.100Z,9.75
2018-01-28T07:42:00.555Z,5.75
2018-01-28T07:43:03.025Z,6.10
2018-01-28T07:44:05.501Z,6.43
2018-01-28T07:45:07.999Z,6.00
2018-01-28T07:46:10.516Z,8.07
2018-01-28T07:47:13.006Z,6.45
2018-01-28T07:48:15.492Z,7.87
2018-01-28T07:49:17.972Z,5.28
2018-01-28T07:50:20.511Z,8.00
2018-01-28T07:51:22.971Z,6.07
2018-01-28T07:52:25.431Z,10.23
2018-01-28T07:53:27.904Z,9.07
2018-01-28T07:54:30.385Z,8.02
2018-01-28T07:55:32.840Z,6.70
2018-01-28T07:56:35.308Z,6.07
2018-01-28T07:57:37.781Z,8.95
2018-01-28T07:58:40.270Z,6.95
2018-01-28T07:59:42.735Z,7.50
2018-01-28T08:00:45.212Z,12.85
2018-01-28T08:01:47.697Z,8.32
2018-01-28T08:02:50.199Z,6.70
2018-01-28T08:03:52.657Z,8.73
2018-01-28T08:04:55.136Z,10.55
2018-01-28T08:05:57.587Z,8.50
2018-01-28T08:07:00.056Z,10.57
2018-01-28T08:08:02.511Z,7.22
2018-01-28T08:09:04.975Z,11.90
2018-01-28T08:10:23.129Z,7.90
2018-01-28T08:13:25.181Z,6.40
2018-01-28T08:14:32.113Z,7.35
2018-01-28T08:15:34.566Z,6.82
2018-01-28T08:16:37.018Z,8.30
2018-01-28T08:17:39.497Z,7.53
2018-01-28T08:18:41.959Z,7.75
2018-01-28T08:19:44.418Z,9.80
2018-01-28T08:20:46.874Z,7.85
2018-01-28T08:21:49.338Z,13.90
2018-01-28T08:22:51.830Z,7.72
2018-01-28T08:23:54.287Z,9.63
2018-01-28T08:24:56.766Z,10.80
2018-01-28T08:25:59.251Z,8.93
2018-01-28T08:39:23.253Z,8.10
2018-01-28T08:40:25.714Z,9.30
2018-01-28T08:41:28.190Z,10.10
2018-01-28T08:42:30.669Z,14.50
2018-01-28T08:43:33.136Z,14.73
2018-01-28T08:44:35.601Z,9.93
2018-01-28T08:45:38.080Z,26.20
2018-01-28T08:46:40.601Z,12.68
2018-01-28T08:47:43.059Z,9.40
2018-01-28T08:48:45.534Z,14.98
2018-01-28T08:49:48.017Z,15.65
2018-01-28T08:50:50.527Z,18.60
2018-01-28T08:51:52.991Z,13.65
2018-01-28T08:52:55.450Z,15.90
2018-01-28T08:53:57.918Z,21.77
2018-01-28T08:55:00.375Z,8.60
2018-01-28T08:56:02.843Z,10.70
2018-01-28T08:57:05.636Z,10.88
2018-01-28T08:58:08.130Z,10.38
2018-01-28T08:59:10.620Z,14.00
2018-01-28T09:00:13.097Z,11.82
2018-01-28T09:01:15.584Z,13.98
2018-01-28T09:02:18.065Z,12.82
2018-01-28T09:03:20.562Z,36.65
2018-01-28T09:04:23.028Z,37.08
2018-01-28T09:05:25.492Z,14.07
2018-01-28T09:06:28.321Z,25.58
2018-01-28T09:07:30.870Z,13.55
2018-01-28T09:08:33.434Z,13.25
2018-01-28T09:09:35.902Z,10.05
2018-01-28T09:10:38.378Z,9.55
2018-01-28T09:11:40.859Z,12.23
2018-01-28T09:12:43.344Z,8.13
2018-01-28T09:13:45.807Z,14.70
2018-01-28T09:14:48.279Z,12.98
2018-01-28T09:15:50.735Z,10.15
2018-01-28T09:16:53.203Z,13.18
2018-01-28T09:17:55.673Z,9.73
2018-01-28T09:18:58.138Z,15.85
2018-01-28T09:20:00.607Z,12.82
2018-01-28T09:21:03.071Z,12.43
2018-01-28T09:22:05.549Z,13.13
2018-01-28T09:23:08.015Z,8.93
2018-01-28T09:24:10.483Z,15.60
2018-01-28T09:25:12.968Z,10.55
2018-01-28T09:26:15.444Z,9.07
2018-01-28T09:27:17.922Z,21.20
2018-01-28T09:28:20.379Z,9.38
2018-01-28T09:29:23.068Z,7.87
2018-01-28T09:30:25.557Z,8.27
2018-01-28T09:31:28.034Z,9.43
2018-01-28T09:32:30.527Z,12.63
2018-01-28T09:33:32.994Z,19.73
2018-01-28T09:34:35.480Z,11.90
2018-01-28T09:35:38.456Z,17.40
2018-01-28T09:36:40.945Z,14.80
2018-01-28T09:37:43.431Z,9.68
2018-01-28T09:38:46.310Z,11.65
2018-01-28T09:39:48.785Z,9.00
2018-01-28T09:40:51.731Z,8.70
2018-01-28T09:41:54.203Z,14.60
2018-01-28T09:42:56.677Z,12.48
2018-01-28T09:43:59.246Z,9.70
2018-01-28T09:45:01.718Z,16.58
2018-01-28T09:46:04.202Z,9.27
2018-01-28T09:47:06.695Z,14.70
2018-01-28T09:48:09.185Z,13.60
2018-01-28T09:49:11.669Z,11.57
2018-01-28T09:50:14.145Z,16.10
2018-01-28T09:51:16.638Z,11.40
2018-01-28T09:52:19.432Z,13.18
2018-01-28T09:53:21.902Z,11.35
2018-01-28T09:54:24.367Z,10.73
2018-01-28T09:55:26.850Z,10.20
2018-01-28T09:56:29.350Z,11.20
2018-01-28T09:57:31.828Z,11.30
2018-01-28T09:58:34.427Z,12.75
2018-01-28T09:59:36.895Z,11.80
2018-01-28T10:00:39.397Z,9.20
2018-01-28T10:01:42.099Z,7.47
2018-01-28T10:02:45.221Z,15.13
2018-01-28T10:03:47.751Z,11.05
2018-01-28T10:04:50.475Z,10.10
2018-01-28T10:05:52.991Z,11.63
2018-01-28T10:06:56.612Z,16.27
2018-01-28T10:07:59.082Z,12.63
2018-01-28T10:09:01.606Z,9.60
2018-01-28T10:10:04.099Z,10.02
2018-01-28T10:11:06.563Z,9.27
2018-01-28T10:12:09.037Z,11.18
2018-01-28T10:13:11.531Z,8.50
2018-01-28T10:14:14.037Z,8.45
2018-01-28T10:15:16.491Z,10.50
2018-01-28T10:16:18.975Z,10.18
2018-01-28T10:17:21.475Z,11.93
2018-01-28T10:18:23.957Z,14.40
2018-01-28T10:19:26.433Z,9.55
2018-01-28T10:20:28.910Z,13.18
2018-01-28T10:21:31.382Z,8.57
2018-01-28T10:22:33.865Z,10.98
2018-01-28T10:23:36.346Z,9.32
2018-01-28T10:24:38.829Z,15.32
2018-01-28T10:25:41.294Z,9.93
2018-01-28T10:26:43.785Z,12.80
2018-01-28T10:27:46.250Z,16.12
2018-01-28T10:28:48.714Z,13.00
2018-01-28T10:29:51.218Z,10.80
2018-01-28T10:30:53.702Z,13.07
2018-01-28T10:31:56.186Z,12.02
2018-01-28T10:32:58.722Z,9.93
2018-01-28T10:34:01.210Z,13.05
2018-01-28T10:35:03.731Z,8.40
2018-01-28T10:36:06.196Z,11.40
2018-01-28T10:37:08.663Z,10.80
2018-01-28T10:38:11.129Z,13.85
2018-01-28T10:39:13.600Z,9.60
2018-01-28T10:40:16.085Z,15.65
2018-01-28T10:41:18.887Z,15.75
2018-01-28T10:42:22.101Z,10.95
2018-01-28T10:43:25.309Z,11.02
2018-01-28T10:44:28.728Z,10.50
2018-01-28T10:45:31.282Z,8.95
2018-01-28T10:46:33.768Z,9.68
2018-01-28T10:47:36.306Z,11.85
2018-01-28T10:48:38.816Z,9.15
2018-01-28T10:49:41.282Z,13.40
2018-01-28T10:50:43.765Z,10.23
2018-01-28T10:51:46.328Z,10.02
2018-01-28T10:52:48.906Z,14.52
2018-01-28T10:53:51.527Z,11.57
2018-01-28T10:54:54.030Z,9.68
2018-01-28T10:55:56.491Z,8.88
2018-01-28T10:56:59.284Z,10.50
2018-01-28T10:58:01.773Z,12.95
2018-01-28T10:59:05.174Z,7.65
2018-01-28T11:00:07.723Z,13.38
2018-01-28T11:01:10.209Z,11.50
2018-01-28T11:02:12.677Z,12.10
2018-01-28T11:03:15.153Z,17.37
2018-01-28T11:04:17.637Z,12.95
2018-01-28T11:05:20.113Z,15.07
2018-01-28T11:06:22.574Z,14.07
2018-01-28T11:07:25.050Z,13.60
2018-01-28T11:08:27.548Z,16.40
2018-01-28T11:09:30.036Z,13.05
2018-01-28T11:10:32.508Z,14.32
2018-01-28T11:11:35.050Z,14.40
2018-01-28T11:12:37.498Z,12.07
2018-01-28T11:13:39.964Z,12.65
2018-01-28T11:14:42.464Z,22.25
2018-01-28T11:15:45.110Z,12.48
2018-01-28T11:16:47.593Z,13.18
2018-01-28T11:17:50.081Z,11.80
2018-01-28T11:18:52.557Z,15.55
2018-01-28T11:19:55.023Z,10.45
2018-01-28T11:20:57.507Z,10.57
2018-01-28T11:22:00.003Z,7.53
2018-01-28T11:23:02.493Z,8.88
2018-01-28T11:24:04.964Z,12.18
2018-01-28T11:25:07.427Z,11.38
2018-01-28T11:26:09.953Z,13.62
2018-01-28T11:27:12.420Z,12.25
2018-01-28T11:28:14.906Z,15.75
2018-01-28T11:29:17.608Z,14.32
2018-01-28T11:30:20.073Z,11.40
2018-01-28T11:31:22.545Z,13.62
2018-01-28T11:32:25.034Z,14.25
2018-01-28T11:33:27.830Z,10.48
2018-01-28T11:34:30.353Z,13.60
2018-01-28T11:35:32.862Z,11.88
2018-01-28T11:36:35.361Z,19.20
2018-01-28T11:37:37.835Z,14.15
2018-01-28T11:38:40.318Z,16.58
2018-01-28T11:39:42.787Z,13.70
2018-01-28T11:40:45.302Z,11.40
2018-01-28T11:41:47.793Z,13.77
2018-01-28T11:42:50.267Z,9.70
2018-01-28T11:43:52.787Z,20.67
2018-01-28T11:44:55.406Z,13.10
2018-01-28T11:45:57.910Z,10.05
2018-01-28T11:47:00.389Z,11.27
2018-01-28T11:48:02.861Z,8.55
2018-01-28T11:49:05.376Z,12.55
2018-01-28T11:50:07.854Z,15.23
2018-01-28T11:51:10.345Z,17.90
2018-01-28T11:52:12.825Z,14.77
2018-01-28T11:53:15.290Z,20.60
2018-01-28T11:54:17.824Z,14.90
2018-01-28T11:55:20.293Z,10.55
2018-01-28T11:56:22.755Z,13.60
2018-01-28T11:57:25.217Z,9.63
2018-01-28T11:58:27.691Z,9.30
2018-01-28T11:59:30.175Z,10.18
2018-01-28T12:00:32.665Z,15.80
2018-01-28T12:01:35.842Z,13.88
2018-01-28T12:02:38.312Z,15.07
2018-01-28T12:03:41.066Z,15.48
2018-01-28T12:04:43.553Z,11.12
2018-01-28T12:05:46.090Z,8.00
2018-01-28T12:06:49.976Z,8.80
2018-01-28T12:07:52.584Z,13.27
2018-01-28T12:08:55.447Z,16.08
2018-01-28T12:09:57.924Z,13.45
2018-01-28T12:11:00.398Z,15.02
2018-01-28T12:12:02.889Z,12.02
2018-01-28T12:13:05.352Z,11.02
2018-01-28T12:14:07.816Z,12.68
2018-01-28T12:15:10.356Z,10.93
2018-01-28T12:16:12.849Z,9.65
2018-01-28T12:17:15.446Z,9.57
2018-01-28T12:18:17.990Z,9.75
2018-01-28T12:19:20.514Z,8.55
2018-01-28T12:20:23.025Z,7.43
2018-01-28T12:21:25.500Z,15.98
2018-01-28T12:22:28.200Z,10.27
2018-01-28T12:23:31.040Z,14.75
2018-01-28T12:24:33.703Z,12.25
2018-01-28T12:25:36.206Z,9.35
2018-01-28T12:26:38.840Z,10.25
2018-01-28T12:27:42.773Z,8.98
2018-01-28T12:28:45.337Z,6.72
2018-01-28T12:29:47.897Z,9.60
2018-01-28T12:30:50.703Z,10.48
2018-01-28T12:31:54.530Z,10.93
2018-01-28T12:32:57.158Z,6.97
2018-01-28T12:33:59.635Z,8.48
2018-01-28T12:35:02.188Z,6.07
2018-01-28T12:36:04.730Z,8.13
2018-01-28T12:37:07.396Z,10.15
2018-01-28T12:38:10.292Z,7.93
2018-01-28T12:39:12.850Z,7.50
2018-01-28T12:40:15.920Z,5.82
2018-01-28T12:41:18.527Z,8.50
2018-01-28T12:42:21.023Z,5.72
2018-01-28T12:43:23.485Z,8.38
2018-01-28T12:44:25.954Z,4.50
2018-01-28T12:45:28.487Z,6.07
2018-01-28T12:46:30.961Z,5.85
2018-01-28T12:47:33.533Z,7.60
2018-01-28T12:48:36.012Z,9.90
2018-01-28T12:49:38.604Z,13.90
2018-01-28T12:50:41.101Z,9.90
2018-01-28T12:51:43.968Z,22.35
2018-01-28T12:52:46.461Z,6.37
2018-01-28T12:53:49.058Z,10.68
2018-01-28T12:54:51.590Z,5.62
2018-01-28T12:55:54.128Z,20.85
2018-01-28T12:56:56.655Z,5.37
2018-01-28T12:57:59.209Z,22.27
2018-01-28T12:59:01.691Z,7.45
2018-01-28T13:00:04.228Z,9.38
2018-01-28T13:01:06.730Z,7.30
2018-01-28T13:02:09.337Z,51.78
2018-01-28T13:03:11.866Z,7.90
2018-01-28T13:04:14.343Z,25.62
2018-01-28T13:05:16.927Z,6.47
2018-01-28T13:06:19.428Z,5.72
2018-01-28T13:07:21.918Z,9.18
2018-01-28T13:08:24.418Z,4.50
2018-01-28T13:09:27.058Z,12.90
2018-01-28T13:10:29.540Z,4.80
2018-01-28T13:11:32.337Z,4.72
2018-01-28T13:12:34.827Z,5.62
2018-01-28T13:13:37.305Z,5.70
2018-01-28T13:14:39.794Z,4.72
2018-01-28T13:15:42.627Z,8.20
2018-01-28T13:16:45.161Z,3.67
2018-01-28T13:17:48.055Z,4.72
2018-01-28T13:18:50.551Z,28.98
2018-01-28T13:19:53.283Z,9.85
2018-01-28T13:20:55.924Z,11.40
2018-01-28T13:21:58.448Z,6.70
2018-01-28T13:23:00.924Z,5.87
2018-01-28T13:24:03.413Z,6.28
2018-01-28T13:25:05.893Z,5.05
2018-01-28T13:26:08.385Z,5.43
2018-01-28T13:27:10.870Z,8.75
2018-01-28T13:28:13.366Z,11.38
2018-01-28T13:29:15.911Z,11.35
2018-01-28T13:30:18.966Z,11.27
2018-01-28T13:31:21.465Z,10.07
2018-01-28T13:32:23.970Z,9.73
2018-01-28T13:33:26.439Z,6.68
2018-01-28T13:34:29.016Z,7.45
2018-01-28T13:35:31.500Z,10.55
2018-01-28T13:36:34.019Z,10.38
2018-01-28T13:37:36.525Z,5.75
2018-01-28T13:38:39.203Z,4.18
2018-01-28T13:39:41.714Z,9.70
2018-01-28T13:40:44.197Z,11.75
2018-01-28T13:41:46.836Z,6.05
2018-01-28T13:42:50.110Z,4.32
2018-01-28T13:43:52.595Z,6.95
2018-01-28T13:44:55.059Z,6.40
2018-01-28T13:45:57.715Z,4.90
2018-01-28T13:47:00.426Z,7.00
2018-01-28T13:48:02.903Z,4.60
2018-01-28T13:49:05.425Z,5.62
2018-01-28T13:50:08.085Z,3.90
2018-01-28T13:51:10.773Z,4.95
2018-01-28T13:52:13.239Z,3.65
2018-01-28T13:53:16.045Z,4.30
2018-01-28T13:54:18.722Z,6.05